Time;durP1;ratioP1;P1;durP2;ratioP2;P2;SDS_P1;SDS_P2;PMS_P1;PMS_P2;Temp;Humidity;BMP_temperature;BMP_pressure;BME280_temperature;BME280_humidity;BME280_pressure;Samples;Min_cycle;Max_cycle;Signal;HPM_P1;HPM_P2
2023/04/16 00:01:35;;;;;;;33.63;18.25;;;;;;;;;;6269899;28;20052;-49
2023/04/16 00:04:35;;;;;;;30.23;17.05;;;;;;;;;;6277257;28;20049;-49
2023/04/16 00:07:36;;;;;;;30.75;17.67;;;;;;;;;;6265898;28;20056;-52
2023/04/16 00:10:37;;;;;;;32.00;17.63;;;;;;;;;;6267718;28;20086;-49
2023/04/16 00:13:37;;;;;;;32.15;16.45;;;;;;;;;;6269950;28;20064;-58
2023/04/16 00:16:38;;;;;;;29.58;17.60;;;;;;;;;;6268552;28;20404;-59
2023/04/16 00:19:39;;;;;;;33.47;18.17;;;;;;;;;;6268583;28;20041;-59
2023/04/16 00:22:40;;;;;;;32.55;18.10;;;;;;;;;;6271928;28;20064;-53
2023/04/16 00:25:41;;;;;;;34.25;19.10;;;;;;;;;;6269335;28;20059;-55
2023/04/16 00:28:42;;;;;;;32.72;19.13;;;;;;;;;;6269676;28;20488;-59
2023/04/16 00:31:43;;;;;;;33.42;17.80;;;;;;;;;;6273554;28;20091;-48
2023/04/16 00:34:43;;;;;;;37.58;20.15;;;;;;;;;;6277736;28;20503;-57
2023/04/16 00:37:44;;;;;;;32.88;18.73;;;;;;;;;;6283851;28;20091;-50
2023/04/16 00:40:44;;;;;;;40.42;20.35;;;;;;;;;;6278888;28;20125;-56
2023/04/16 00:43:45;;;;;;;34.55;18.40;;;;;;;;;;6274391;28;20045;-59
2023/04/16 00:46:45;;;;;;;35.65;18.90;;;;;;;;;;6268917;28;20053;-53
2023/04/16 00:49:46;;;;;;;34.63;19.15;;;;;;;;;;6273906;28;20040;-58
2023/04/16 00:52:47;;;;;;;33.80;19.65;;;;;;;;;;6269871;28;20056;-60
2023/04/16 00:55:49;;;;;;;37.57;21.10;;;;;;;;;;6272552;28;20048;-54
2023/04/16 00:58:50;;;;;;;35.83;20.50;;;;;;;;;;6266504;28;20136;-53
2023/04/16 01:01:51;;;;;;;39.10;21.65;;;;;;;;;;6276318;28;20557;-49
2023/04/16 01:04:51;;;;;;;36.92;21.10;;;;;;;;;;6269518;28;20052;-57
2023/04/16 01:07:52;;;;;;;41.35;22.38;;;;;;;;;;6289300;28;20109;-50
2023/04/16 01:10:52;;;;;;;38.97;20.85;;;;;;;;;;6270656;28;20688;-56
2023/04/16 01:13:53;;;;;;;37.10;20.58;;;;;;;;;;6268845;28;20472;-50
2023/04/16 01:16:53;;;;;;;32.15;19.10;;;;;;;;;;6266222;28;20045;-57
2023/04/16 01:19:58;;;;;;;35.00;20.10;;;;;;;;;;6264790;28;20492;-51
2023/04/16 01:22:58;;;;;;;37.30;21.45;;;;;;;;;;6269155;28;20090;-53
2023/04/16 01:25:59;;;;;;;38.53;21.08;;;;;;;;;;6267260;28;20136;-58
2023/04/16 01:29:00;;;;;;;36.97;19.17;;;;;;;;;;6265848;28;20131;-49
2023/04/16 01:32:00;;;;;;;34.47;19.55;;;;;;;;;;6269038;28;20742;-57
2023/04/16 01:35:01;;;;;;;32.28;17.92;;;;;;;;;;6267316;28;20476;-50
2023/04/16 01:38:02;;;;;;;37.50;20.98;;;;;;;;;;6266327;28;20040;-53
2023/04/16 01:41:03;;;;;;;33.10;19.17;;;;;;;;;;6268265;28;20392;-50
2023/04/16 01:44:04;;;;;;;44.17;25.23;;;;;;;;;;6269385;28;20045;-52
2023/04/16 01:47:04;;;;;;;38.20;21.38;;;;;;;;;;6268405;28;20051;-57
2023/04/16 01:50:05;;;;;;;47.65;26.27;;;;;;;;;;6269146;28;20500;-52
2023/04/16 01:53:06;;;;;;;41.45;23.00;;;;;;;;;;6267880;28;20381;-52
2023/04/16 01:56:07;;;;;;;39.35;22.17;;;;;;;;;;6266878;28;20053;-50
2023/04/16 01:59:07;;;;;;;42.97;22.92;;;;;;;;;;6272320;28;20048;-50
2023/04/16 02:02:09;;;;;;;47.67;23.98;;;;;;;;;;6267716;28;20114;-53
2023/04/16 02:05:10;;;;;;;45.35;23.42;;;;;;;;;;6265614;28;20044;-60
2023/04/16 02:08:11;;;;;;;44.35;23.85;;;;;;;;;;6266728;28;20148;-54
2023/04/16 02:11:11;;;;;;;41.97;23.02;;;;;;;;;;6267277;28;20048;-51
2023/04/16 02:14:12;;;;;;;47.03;24.38;;;;;;;;;;6265185;28;20037;-51
2023/04/16 02:17:14;;;;;;;41.80;23.00;;;;;;;;;;6267348;28;20041;-49
2023/04/16 02:20:14;;;;;;;46.35;23.83;;;;;;;;;;6266251;28;20464;-48
2023/04/16 02:23:16;;;;;;;46.75;23.67;;;;;;;;;;6267733;28;20052;-55
2023/04/16 02:26:17;;;;;;;43.23;24.07;;;;;;;;;;6267368;28;20128;-49
2023/04/16 02:29:18;;;;;;;44.30;23.55;;;;;;;;;;6268114;28;20343;-57
2023/04/16 02:32:19;;;;;;;40.40;22.37;;;;;;;;;;6266610;28;20052;-51
2023/04/16 02:35:20;;;;;;;34.78;20.52;;;;;;;;;;6263725;28;20053;-58
2023/04/16 02:38:20;;;;;;;37.95;22.27;;;;;;;;;;6265344;28;20048;-53
2023/04/16 02:41:21;;;;;;;38.72;20.80;;;;;;;;;;6266938;28;20048;-51
2023/04/16 02:44:22;;;;;;;38.45;21.15;;;;;;;;;;6267385;28;20120;-53
2023/04/16 02:47:22;;;;;;;40.10;22.15;;;;;;;;;;6267310;28;20075;-51
2023/04/16 02:50:23;;;;;;;39.45;21.80;;;;;;;;;;6281003;28;20550;-50
2023/04/16 02:53:23;;;;;;;41.33;20.70;;;;;;;;;;6267402;28;20049;-54
2023/04/16 02:56:24;;;;;;;44.42;24.02;;;;;;;;;;6265787;28;20591;-49
2023/04/16 02:59:25;;;;;;;66.97;27.85;;;;;;;;;;6263319;28;20060;-50
2023/04/16 03:02:26;;;;;;;51.07;22.50;;;;;;;;;;6264477;28;20049;-54
2023/04/16 03:05:27;;;;;;;77.72;23.85;;;;;;;;;;6265265;28;20072;-53
2023/04/16 03:08:27;;;;;;;111.63;26.50;;;;;;;;;;6264409;28;20148;-52
2023/04/16 03:11:28;;;;;;;48.17;22.95;;;;;;;;;;6264678;28;20052;-49
2023/04/16 03:14:29;;;;;;;91.97;23.85;;;;;;;;;;6267908;28;20127;-50
2023/04/16 03:17:30;;;;;;;87.55;23.77;;;;;;;;;;6275954;28;20079;-49
2023/04/16 03:20:30;;;;;;;96.47;26.95;;;;;;;;;;6273996;28;20830;-51
2023/04/16 03:23:31;;;;;;;107.35;26.35;;;;;;;;;;6270718;28;20523;-52
2023/04/16 03:26:32;;;;;;;100.22;26.30;;;;;;;;;;6268974;28;20055;-50
2023/04/16 03:29:32;;;;;;;86.78;25.05;;;;;;;;;;6289555;28;20049;-52
2023/04/16 03:32:33;;;;;;;107.28;25.38;;;;;;;;;;6273869;28;20053;-53
2023/04/16 03:35:34;;;;;;;115.82;23.73;;;;;;;;;;6270568;28;20408;-51
2023/04/16 03:38:35;;;;;;;99.47;23.77;;;;;;;;;;6271766;28;20051;-51
2023/04/16 03:41:35;;;;;;;68.10;21.27;;;;;;;;;;6270152;28;20041;-52
2023/04/16 03:44:36;;;;;;;61.60;21.08;;;;;;;;;;6269753;28;20070;-57
2023/04/16 03:47:36;;;;;;;87.43;22.30;;;;;;;;;;6269572;28;20769;-52
2023/04/16 03:50:37;;;;;;;106.38;22.42;;;;;;;;;;6271654;28;20458;-51
2023/04/16 03:53:37;;;;;;;101.97;22.25;;;;;;;;;;6269690;28;20082;-50
2023/04/16 03:56:41;;;;;;;114.65;22.95;;;;;;;;;;6267195;28;20407;-49
2023/04/16 03:59:42;;;;;;;92.68;21.55;;;;;;;;;;6268622;28;20487;-54
2023/04/16 04:02:42;;;;;;;81.75;21.75;;;;;;;;;;6281612;28;20060;-53
2023/04/16 04:05:43;;;;;;;110.22;21.90;;;;;;;;;;6281936;28;20052;-50
2023/04/16 04:08:44;;;;;;;89.07;22.08;;;;;;;;;;6284157;28;20139;-50
2023/04/16 04:11:44;;;;;;;63.38;20.92;;;;;;;;;;6272158;28;20409;-51
2023/04/16 04:14:45;;;;;;;69.43;20.75;;;;;;;;;;6267334;28;20033;-49
2023/04/16 04:17:45;;;;;;;76.03;21.92;;;;;;;;;;6280894;28;20045;-52
2023/04/16 04:20:46;;;;;;;66.15;21.90;;;;;;;;;;6278193;28;20510;-53
2023/04/16 04:23:47;;;;;;;53.38;21.10;;;;;;;;;;6269498;28;20929;-55
2023/04/16 04:26:47;;;;;;;75.32;22.05;;;;;;;;;;6269068;28;20488;-51
2023/04/16 04:29:48;;;;;;;75.35;21.85;;;;;;;;;;6269623;28;20044;-53
2023/04/16 04:32:48;;;;;;;66.85;23.15;;;;;;;;;;6270755;28;20495;-55
2023/04/16 04:35:49;;;;;;;63.03;22.00;;;;;;;;;;6267921;28;20044;-51
2023/04/16 04:38:50;;;;;;;69.28;23.55;;;;;;;;;;6273086;28;20047;-50
2023/04/16 04:41:50;;;;;;;63.20;23.52;;;;;;;;;;6272857;28;20093;-51
2023/04/16 04:44:51;;;;;;;64.57;25.35;;;;;;;;;;6270149;28;20056;-50
2023/04/16 04:47:51;;;;;;;60.28;23.80;;;;;;;;;;6269815;28;20048;-50
2023/04/16 04:50:52;;;;;;;77.28;25.38;;;;;;;;;;6267746;28;20087;-56
2023/04/16 04:53:53;;;;;;;59.55;23.95;;;;;;;;;;6272375;28;20117;-50
2023/04/16 04:56:54;;;;;;;57.33;24.30;;;;;;;;;;6267301;28;20175;-50
2023/04/16 04:59:54;;;;;;;62.60;23.38;;;;;;;;;;6269095;28;20045;-57
2023/04/16 05:02:55;;;;;;;58.75;23.77;;;;;;;;;;6267359;28;20080;-58
2023/04/16 05:05:55;;;;;;;63.35;24.27;;;;;;;;;;6262042;28;20041;-51
2023/04/16 05:08:56;;;;;;;60.53;24.30;;;;;;;;;;6271066;28;20745;-54
2023/04/16 05:11:56;;;;;;;54.00;23.98;;;;;;;;;;6269144;28;20487;-55
2023/04/16 05:14:57;;;;;;;57.38;26.15;;;;;;;;;;6264267;28;20041;-52
2023/04/16 05:17:57;;;;;;;59.05;25.80;;;;;;;;;;6269154;28;20049;-54
2023/04/16 05:20:58;;;;;;;56.85;27.13;;;;;;;;;;6263556;28;20567;-51
2023/04/16 05:23:59;;;;;;;55.05;25.02;;;;;;;;;;6264839;28;20139;-51
2023/04/16 05:27:00;;;;;;;59.28;26.67;;;;;;;;;;6265714;28;20037;-52
2023/04/16 05:30:01;;;;;;;55.08;25.02;;;;;;;;;;6264252;28;20052;-51
2023/04/16 05:33:01;;;;;;;59.10;26.35;;;;;;;;;;6264183;28;20040;-51
2023/04/16 05:36:02;;;;;;;55.88;25.67;;;;;;;;;;6262791;28;20049;-51
2023/04/16 05:39:03;;;;;;;56.72;24.83;;;;;;;;;;6263234;28;20040;-57
2023/04/16 05:42:03;;;;;;;53.40;25.75;;;;;;;;;;6264900;28;20048;-58
2023/04/16 05:45:04;;;;;;;54.20;25.45;;;;;;;;;;6263807;28;20044;-52
2023/04/16 05:48:08;;;;;;;52.85;24.75;;;;;;;;;;6271450;28;20756;-56
2023/04/16 05:51:09;;;;;;;64.13;28.33;;;;;;;;;;6267092;28;20052;-51
2023/04/16 05:54:09;;;;;;;56.38;25.08;;;;;;;;;;6265221;28;20971;-55
2023/04/16 05:57:12;;;;;;;57.83;24.98;;;;;;;;;;6265013;28;20045;-53
2023/04/16 06:00:13;;;;;;;56.08;24.50;;;;;;;;;;6264354;28;20057;-52
2023/04/16 06:03:13;;;;;;;58.28;25.80;;;;;;;;;;6266795;28;20602;-52
2023/04/16 06:06:14;;;;;;;64.78;27.38;;;;;;;;;;6260792;28;20752;-53
2023/04/16 06:09:15;;;;;;;60.78;26.85;;;;;;;;;;6265798;28;20582;-50
2023/04/16 06:12:16;;;;;;;60.35;25.55;;;;;;;;;;6267177;28;20068;-50
2023/04/16 06:15:16;;;;;;;56.25;26.35;;;;;;;;;;6267415;28;20045;-52
2023/04/16 06:18:17;;;;;;;58.83;25.80;;;;;;;;;;6266293;28;20749;-54
2023/04/16 06:21:17;;;;;;;56.53;24.90;;;;;;;;;;6264508;28;20622;-54
2023/04/16 06:24:18;;;;;;;55.65;24.63;;;;;;;;;;6285283;28;20045;-53
2023/04/16 06:27:19;;;;;;;59.22;26.35;;;;;;;;;;6266147;28;20075;-51
2023/04/16 06:30:19;;;;;;;54.20;25.60;;;;;;;;;;6267628;28;20488;-52
2023/04/16 06:33:20;;;;;;;53.50;24.30;;;;;;;;;;6265064;28;20037;-57
2023/04/16 06:36:20;;;;;;;51.45;22.42;;;;;;;;;;6262558;28;20523;-53
2023/04/16 06:39:21;;;;;;;56.95;24.20;;;;;;;;;;6266271;28;20052;-53
2023/04/16 06:42:22;;;;;;;57.90;23.50;;;;;;;;;;6268512;28;20052;-49
2023/04/16 06:45:23;;;;;;;58.80;24.23;;;;;;;;;;6267315;28;20045;-54
2023/04/16 06:48:23;;;;;;;56.45;25.13;;;;;;;;;;6268873;28;20037;-51
2023/04/16 06:51:25;;;;;;;48.22;22.48;;;;;;;;;;6275914;28;20106;-51
2023/04/16 06:54:25;;;;;;;51.63;23.88;;;;;;;;;;6282143;28;20447;-58
2023/04/16 06:57:26;;;;;;;49.70;23.80;;;;;;;;;;6285152;28;20094;-52
2023/04/16 07:00:27;;;;;;;47.22;22.88;;;;;;;;;;6294488;28;20048;-50
2023/04/16 07:03:28;;;;;;;46.17;22.65;;;;;;;;;;6294033;28;20049;-52
2023/04/16 07:06:28;;;;;;;54.45;24.00;;;;;;;;;;6292640;28;20040;-55
2023/04/16 07:09:29;;;;;;;51.60;23.23;;;;;;;;;;6294038;28;20052;-50
2023/04/16 07:12:30;;;;;;;47.40;22.88;;;;;;;;;;6292285;28;20056;-53
2023/04/16 07:15:31;;;;;;;50.97;23.37;;;;;;;;;;6292095;28;20407;-49
2023/04/16 07:18:32;;;;;;;43.97;21.25;;;;;;;;;;6293695;28;20328;-59
2023/04/16 07:21:32;;;;;;;45.10;22.60;;;;;;;;;;6293241;28;20524;-55
2023/04/16 07:24:34;;;;;;;40.67;21.60;;;;;;;;;;6290031;28;20044;-53
2023/04/16 07:27:35;;;;;;;41.83;20.95;;;;;;;;;;6289325;28;20411;-55
2023/04/16 07:30:35;;;;;;;41.60;20.80;;;;;;;;;;6285822;28;20044;-57
2023/04/16 07:33:36;;;;;;;34.70;17.88;;;;;;;;;;6292229;28;20043;-53
2023/04/16 07:36:37;;;;;;;34.70;17.15;;;;;;;;;;6286580;28;20052;-54
2023/04/16 07:39:37;;;;;;;30.75;15.45;;;;;;;;;;6293375;28;20045;-54
2023/04/16 07:42:38;;;;;;;32.83;16.98;;;;;;;;;;6292151;28;20076;-54
2023/04/16 07:45:39;;;;;;;31.98;16.67;;;;;;;;;;6291576;28;20055;-54
2023/04/16 07:48:39;;;;;;;26.85;13.27;;;;;;;;;;6292455;28;20040;-55
2023/04/16 07:51:40;;;;;;;23.38;12.90;;;;;;;;;;6292295;28;20045;-58
2023/04/16 07:54:40;;;;;;;22.42;13.27;;;;;;;;;;6290740;28;20074;-59
2023/04/16 07:57:41;;;;;;;22.52;11.98;;;;;;;;;;6291926;28;20140;-51
2023/04/16 08:00:42;;;;;;;18.17;11.10;;;;;;;;;;6287909;28;20072;-54
2023/04/16 08:03:43;;;;;;;19.05;11.80;;;;;;;;;;6283407;28;20060;-54
2023/04/16 08:06:43;;;;;;;20.83;12.30;;;;;;;;;;6280185;28;20040;-56
2023/04/16 08:09:48;;;;;;;18.40;11.05;;;;;;;;;;6292003;28;20139;-54
2023/04/16 08:12:49;;;;;;;19.50;12.38;;;;;;;;;;6286149;28;20048;-55
2023/04/16 08:15:50;;;;;;;19.15;11.65;;;;;;;;;;6290952;28;20040;-57
2023/04/16 08:18:50;;;;;;;19.00;12.27;;;;;;;;;;6283293;28;20048;-56
2023/04/16 08:21:51;;;;;;;18.65;12.43;;;;;;;;;;6286431;28;20040;-53
2023/04/16 08:24:51;;;;;;;19.23;11.82;;;;;;;;;;6276796;28;20053;-54
2023/04/16 08:27:52;;;;;;;18.63;11.57;;;;;;;;;;6276465;28;20040;-56
2023/04/16 08:30:53;;;;;;;18.52;11.35;;;;;;;;;;6278489;28;20048;-59
2023/04/16 08:33:53;;;;;;;17.92;11.38;;;;;;;;;;6290171;28;20721;-53
2023/04/16 08:36:54;;;;;;;19.25;11.30;;;;;;;;;;6289519;28;20765;-55
2023/04/16 08:39:55;;;;;;;19.70;10.95;;;;;;;;;;6291833;28;20148;-59
2023/04/16 08:42:58;;;;;;;19.20;11.27;;;;;;;;;;6277149;28;20045;-57
2023/04/16 08:46:00;;;;;;;21.00;11.90;;;;;;;;;;6265424;28;20152;-58
2023/04/16 08:49:01;;;;;;;16.33;10.40;;;;;;;;;;6281498;28;20182;-54
2023/04/16 08:52:05;;;;;;;18.40;9.65;;;;;;;;;;6267845;28;20136;-55
2023/04/16 08:55:11;;;;;;;14.20;8.90;;;;;;;;;;6287326;28;20730;-60
2023/04/16 08:58:14;;;;;;;13.90;9.05;;;;;;;;;;6290663;28;20176;-56
2023/04/16 09:01:16;;;;;;;14.30;9.07;;;;;;;;;;6286202;28;20540;-60
2023/04/16 09:04:18;;;;;;;13.43;8.05;;;;;;;;;;6270241;28;20384;-54
2023/04/16 09:07:19;;;;;;;12.10;8.17;;;;;;;;;;6289633;28;20103;-57
2023/04/16 09:10:20;;;;;;;14.27;8.75;;;;;;;;;;6283155;28;20060;-58
2023/04/16 09:13:22;;;;;;;12.48;8.05;;;;;;;;;;6282659;28;20094;-57
2023/04/16 09:16:24;;;;;;;14.13;8.60;;;;;;;;;;6264236;28;20055;-58
2023/04/16 09:19:24;;;;;;;17.25;8.48;;;;;;;;;;6286648;28;20083;-55
2023/04/16 09:22:25;;;;;;;14.27;8.88;;;;;;;;;;6287633;28;20041;-58
2023/04/16 09:25:25;;;;;;;16.70;9.88;;;;;;;;;;6279609;28;20040;-59
2023/04/16 09:28:44;;;;;;;13.18;8.10;;;;;;;;;;6277474;28;20048;-58
2023/04/16 09:32:00;;;;;;;10.88;7.20;;;;;;;;;;6282795;28;20396;-60
2023/04/16 09:35:01;;;;;;;11.45;6.70;;;;;;;;;;6288074;28;20082;-59
2023/04/16 09:38:01;;;;;;;11.32;7.13;;;;;;;;;;6283330;28;20173;-52
2023/04/16 09:41:10;;;;;;;15.38;8.60;;;;;;;;;;6277731;28;20048;-53
2023/04/16 09:44:10;;;;;;;12.82;7.82;;;;;;;;;;6278816;28;20144;-54
2023/04/16 09:47:11;;;;;;;15.20;8.65;;;;;;;;;;6267574;28;20033;-54
2023/04/16 09:50:16;;;;;;;13.95;8.77;;;;;;;;;;6268917;28;20041;-58
2023/04/16 09:53:29;;;;;;;9.85;5.85;;;;;;;;;;6284231;28;20057;-52
2023/04/16 09:56:29;;;;;;;10.98;7.07;;;;;;;;;;6292424;28;20400;-53
2023/04/16 09:59:32;;;;;;;8.70;5.82;;;;;;;;;;6286890;28;20037;-59
2023/04/16 10:02:37;;;;;;;9.02;5.63;;;;;;;;;;6281874;28;20068;-59
2023/04/16 10:05:38;;;;;;;8.20;6.00;;;;;;;;;;6276339;28;20052;-58
2023/04/16 10:08:42;;;;;;;11.02;7.32;;;;;;;;;;6275375;28;20067;-51
2023/04/16 10:11:44;;;;;;;11.50;7.18;;;;;;;;;;6284066;28;20045;-54
2023/04/16 10:14:45;;;;;;;9.68;6.93;;;;;;;;;;6272898;28;20048;-58
2023/04/16 10:17:46;;;;;;;13.10;8.32;;;;;;;;;;6289972;28;20059;-57
2023/04/16 10:20:47;;;;;;;12.43;8.30;;;;;;;;;;6288776;28;20044;-56
2023/04/16 10:23:50;;;;;;;14.73;8.80;;;;;;;;;;6294988;28;20454;-59
2023/04/16 10:26:51;;;;;;;9.90;6.97;;;;;;;;;;6287609;28;20530;-58
2023/04/16 10:29:52;;;;;;;11.23;7.50;;;;;;;;;;6268869;28;20069;-54
2023/04/16 10:32:53;;;;;;;10.20;7.18;;;;;;;;;;6272665;28;20499;-59
2023/04/16 10:36:14;;;;;;;12.93;7.20;;;;;;;;;;6287209;28;20052;-53
2023/04/16 10:39:37;;;;;;;9.68;6.90;;;;;;;;;;6278961;28;20551;-59
2023/04/16 10:42:38;;;;;;;9.10;6.63;;;;;;;;;;6268558;28;20140;-59
2023/04/16 10:45:38;;;;;;;8.93;6.45;;;;;;;;;;6294976;28;20545;-59
2023/04/16 10:48:41;;;;;;;10.20;6.78;;;;;;;;;;6293789;28;20049;-58
2023/04/16 10:51:41;;;;;;;;;;;;;;;;;;6292064;28;20583;-58
2023/04/16 10:54:42;;;;;;;7.82;5.53;;;;;;;;;;6278997;28;20007;-54
2023/04/16 10:57:42;;;;;;;9.38;6.00;;;;;;;;;;6282437;28;20060;-57
2023/04/16 11:00:49;;;;;;;;;;;;;;;;;;6255795;28;20049;-54
2023/04/16 11:03:50;;;;;;;9.40;6.38;;;;;;;;;;6271736;28;20011;-52
2023/04/16 11:07:10;;;;;;;10.80;6.47;;;;;;;;;;6272092;28;20053;-52
2023/04/16 11:10:13;;;;;;;8.25;5.90;;;;;;;;;;6272180;28;20745;-54
2023/04/16 11:13:15;;;;;;;8.63;6.10;;;;;;;;;;6267556;28;20153;-55
2023/04/16 11:16:15;;;;;;;9.47;6.40;;;;;;;;;;6271527;28;20125;-53
2023/04/16 11:19:16;;;;;;;12.18;7.38;;;;;;;;;;6270641;28;20517;-54
2023/04/16 11:22:17;;;;;;;9.55;6.07;;;;;;;;;;6269071;28;20040;-51
2023/04/16 11:25:29;;;;;;;8.25;5.95;;;;;;;;;;6270252;28;20041;-52
2023/04/16 11:28:33;;;;;;;9.00;6.10;;;;;;;;;;6273472;28;20041;-52
2023/04/16 11:31:34;;;;;;;8.90;6.05;;;;;;;;;;6272478;28;20049;-53
2023/04/16 11:34:43;;;;;;;7.95;5.45;;;;;;;;;;6269060;28;20046;-52
2023/04/16 11:37:45;;;;;;;10.15;6.32;;;;;;;;;;6271256;28;20491;-55
2023/04/16 11:40:50;;;;;;;8.20;6.05;;;;;;;;;;6271673;28;20044;-53
2023/04/16 11:43:51;;;;;;;8.75;5.70;;;;;;;;;;6268107;28;20675;-52
2023/04/16 11:46:52;;;;;;;7.93;5.43;;;;;;;;;;6269445;28;20040;-51
2023/04/16 11:49:53;;;;;;;7.32;5.15;;;;;;;;;;6271041;28;20041;-53
2023/04/16 11:52:55;;;;;;;7.97;5.18;;;;;;;;;;6270026;28;20522;-56
2023/04/16 11:55:56;;;;;;;7.90;5.80;;;;;;;;;;6268460;28;20052;-56
2023/04/16 11:59:09;;;;;;;7.75;5.45;;;;;;;;;;6269436;28;20472;-55
2023/04/16 12:02:10;;;;;;;7.57;5.15;;;;;;;;;;6264406;28;20486;-56
2023/04/16 12:05:31;;;;;;;6.72;4.88;;;;;;;;;;6269074;28;20049;-55
2023/04/16 12:08:31;;;;;;;7.00;5.30;;;;;;;;;;6269113;28;20410;-52
2023/04/16 12:11:39;;;;;;;7.82;5.20;;;;;;;;;;6270069;28;20049;-54
2023/04/16 12:14:49;;;;;;;7.07;5.00;;;;;;;;;;6270874;28;20569;-53
2023/04/16 12:17:53;;;;;;;7.45;5.20;;;;;;;;;;6267224;28;20431;-50
2023/04/16 12:20:54;;;;;;;8.50;5.55;;;;;;;;;;6269853;28;20044;-54
2023/04/16 12:23:55;;;;;;;8.00;5.35;;;;;;;;;;6271123;28;20901;-52
2023/04/16 12:26:56;;;;;;;8.55;6.10;;;;;;;;;;6269752;28;20390;-53
2023/04/16 12:30:06;;;;;;;7.65;5.70;;;;;;;;;;6269744;28;20037;-51
2023/04/16 12:33:17;;;;;;;8.05;5.43;;;;;;;;;;6279202;28;20063;-56
2023/04/16 12:36:18;;;;;;;8.55;5.78;;;;;;;;;;6271656;28;20056;-56
2023/04/16 12:39:19;;;;;;;7.57;5.60;;;;;;;;;;6268114;28;20662;-54
2023/04/16 12:42:20;;;;;;;8.73;5.53;;;;;;;;;;6270279;28;20041;-53
2023/04/16 12:45:21;;;;;;;8.05;5.60;;;;;;;;;;6271679;28;20091;-52
2023/04/16 12:48:22;;;;;;;8.02;5.57;;;;;;;;;;6266737;28;20052;-55
2023/04/16 12:51:23;;;;;;;9.00;5.38;;;;;;;;;;6267767;28;20044;-57
2023/04/16 12:54:27;;;;;;;7.43;4.72;;;;;;;;;;6269347;28;20060;-58
2023/04/16 12:57:28;;;;;;;7.13;4.70;;;;;;;;;;6270720;28;20052;-58
2023/04/16 13:00:28;;;;;;;5.72;4.07;;;;;;;;;;6265151;28;20070;-59
2023/04/16 13:03:29;;;;;;;6.72;4.35;;;;;;;;;;6277229;28;20040;-56
2023/04/16 13:06:33;;;;;;;7.28;4.35;;;;;;;;;;6273244;28;20549;-54
2023/04/16 13:09:51;;;;;;;6.68;4.18;;;;;;;;;;6240279;28;20268;-54
2023/04/16 13:12:51;;;;;;;6.55;4.63;;;;;;;;;;6242804;28;20439;-56
2023/04/16 13:15:52;;;;;;;5.93;4.00;;;;;;;;;;6241788;28;20074;-54
2023/04/16 13:18:52;;;;;;;5.72;3.80;;;;;;;;;;6240138;28;20389;-53
2023/04/16 13:21:53;;;;;;;6.40;3.85;;;;;;;;;;6242575;28;20091;-53
2023/04/16 13:24:54;;;;;;;5.95;4.60;;;;;;;;;;6241455;28;20045;-52
2023/04/16 13:27:54;;;;;;;6.75;4.07;;;;;;;;;;6238850;28;20119;-58
2023/04/16 13:30:55;;;;;;;6.18;4.28;;;;;;;;;;6240357;28;20048;-54
2023/04/16 13:33:56;;;;;;;6.93;4.47;;;;;;;;;;6242358;28;20439;-53
2023/04/16 13:36:57;;;;;;;8.00;5.38;;;;;;;;;;6242698;28;20062;-53
2023/04/16 13:39:57;;;;;;;7.00;4.80;;;;;;;;;;6247648;28;20182;-55
2023/04/16 13:42:58;;;;;;;7.28;5.05;;;;;;;;;;6269927;28;20106;-56
2023/04/16 13:45:59;;;;;;;8.60;5.55;;;;;;;;;;6270373;28;20460;-54
2023/04/16 13:49:00;;;;;;;8.43;5.50;;;;;;;;;;6268093;28;20487;-57
2023/04/16 13:52:01;;;;;;;9.20;5.90;;;;;;;;;;6266673;28;20047;-53
2023/04/16 13:55:02;;;;;;;9.38;6.07;;;;;;;;;;6268560;28;20860;-52
2023/04/16 13:58:03;;;;;;;7.83;5.00;;;;;;;;;;6269193;28;20448;-55
2023/04/16 14:01:03;;;;;;;6.53;4.72;;;;;;;;;;6267517;28;20052;-51
2023/04/16 14:04:05;;;;;;;7.70;5.10;;;;;;;;;;6268124;28;20049;-54
2023/04/16 14:07:06;;;;;;;;;;;;;;;;;;6270162;28;20083;-53
2023/04/16 14:10:08;;;;;;;8.48;5.13;;;;;;;;;;6267880;28;19994;-54
2023/04/16 14:13:09;;;;;;;7.60;5.20;;;;;;;;;;6269030;28;20115;-54
2023/04/16 14:16:10;;;;;;;8.10;5.57;;;;;;;;;;6269503;28;20091;-54
2023/04/16 14:19:11;;;;;;;8.02;5.40;;;;;;;;;;6266060;28;20044;-49
2023/04/16 14:22:11;;;;;;;7.32;5.40;;;;;;;;;;6266816;28;20124;-53
2023/04/16 14:25:12;;;;;;;7.78;5.45;;;;;;;;;;6267429;28;20045;-56
2023/04/16 14:28:12;;;;;;;8.38;5.63;;;;;;;;;;6267708;28;20049;-54
2023/04/16 14:31:13;;;;;;;7.32;5.00;;;;;;;;;;6269783;28;20443;-54
2023/04/16 14:34:14;;;;;;;8.35;5.07;;;;;;;;;;6288899;28;20499;-54
2023/04/16 14:37:16;;;;;;;8.15;5.38;;;;;;;;;;6272514;28;20052;-54
2023/04/16 14:40:17;;;;;;;8.18;5.90;;;;;;;;;;6266993;28;20048;-53
2023/04/16 14:43:17;;;;;;;7.75;5.60;;;;;;;;;;6268945;28;20052;-54
2023/04/16 14:46:18;;;;;;;6.75;5.15;;;;;;;;;;6267485;28;20191;-55
2023/04/16 14:49:18;;;;;;;9.63;5.75;;;;;;;;;;6267310;28;20519;-53
2023/04/16 14:52:19;;;;;;;10.75;7.25;;;;;;;;;;6265987;28;20033;-55
2023/04/16 14:55:20;;;;;;;11.18;7.45;;;;;;;;;;6268630;28;20041;-54
2023/04/16 14:58:21;;;;;;;11.43;7.13;;;;;;;;;;6267874;28;20610;-54
2023/04/16 15:01:21;;;;;;;10.57;7.10;;;;;;;;;;6267748;28;20040;-56
2023/04/16 15:04:23;;;;;;;12.15;7.15;;;;;;;;;;6266699;28;20136;-54
2023/04/16 15:07:25;;;;;;;10.02;6.65;;;;;;;;;;6267787;28;20048;-54
2023/04/16 15:10:25;;;;;;;9.27;5.68;;;;;;;;;;6267974;28;20071;-55
2023/04/16 15:13:32;;;;;;;9.77;6.80;;;;;;;;;;6271170;28;20048;-52
2023/04/16 15:16:33;;;;;;;8.98;6.63;;;;;;;;;;6270475;28;20050;-53
2023/04/16 15:19:33;;;;;;;10.35;6.70;;;;;;;;;;6270080;28;20037;-54
2023/04/16 15:22:34;;;;;;;10.93;7.10;;;;;;;;;;6271866;28;20048;-55
2023/04/16 15:25:34;;;;;;;8.77;6.30;;;;;;;;;;6274132;28;20044;-51
2023/04/16 15:28:35;;;;;;;9.25;5.85;;;;;;;;;;6271589;28;20063;-57
2023/04/16 15:31:36;;;;;;;9.18;5.78;;;;;;;;;;6271685;28;20806;-52
2023/04/16 15:34:36;;;;;;;10.20;6.18;;;;;;;;;;6269799;28;20571;-51
2023/04/16 15:37:37;;;;;;;9.65;6.47;;;;;;;;;;6272359;28;20060;-54
2023/04/16 15:40:39;;;;;;;9.30;6.67;;;;;;;;;;6271228;28;20110;-54
2023/04/16 15:43:40;;;;;;;9.43;6.50;;;;;;;;;;6274837;28;20311;-56
2023/04/16 15:46:40;;;;;;;9.60;6.40;;;;;;;;;;6282414;28;20123;-59
2023/04/16 15:49:41;;;;;;;10.02;6.35;;;;;;;;;;6274041;28;20045;-53
2023/04/16 15:52:42;;;;;;;9.95;6.70;;;;;;;;;;6283906;28;20035;-54
2023/04/16 15:55:42;;;;;;;13.82;8.65;;;;;;;;;;6282906;28;20105;-53
2023/04/16 15:58:43;;;;;;;11.85;7.35;;;;;;;;;;6286319;28;20559;-57
2023/04/16 16:01:43;;;;;;;10.85;7.47;;;;;;;;;;6287768;28;20594;-55
2023/04/16 16:04:45;;;;;;;9.52;7.13;;;;;;;;;;6284065;28;20040;-54
2023/04/16 16:07:45;;;;;;;11.30;7.80;;;;;;;;;;6284623;28;20920;-53
2023/04/16 16:10:47;;;;;;;10.82;6.95;;;;;;;;;;6282790;28;20062;-54
2023/04/16 16:13:47;;;;;;;11.77;8.10;;;;;;;;;;6287810;28;20044;-55
2023/04/16 16:16:48;;;;;;;15.52;8.45;;;;;;;;;;6288508;28;20052;-54
2023/04/16 16:19:50;;;;;;;12.23;8.50;;;;;;;;;;6285693;28;20048;-55
2023/04/16 16:22:55;;;;;;;9.98;7.50;;;;;;;;;;6289644;28;20044;-58
2023/04/16 16:25:55;;;;;;;11.05;7.72;;;;;;;;;;6285989;28;20042;-53
2023/04/16 16:28:56;;;;;;;11.52;8.05;;;;;;;;;;6283381;28;20051;-54
2023/04/16 16:31:57;;;;;;;11.77;7.72;;;;;;;;;;6286595;28;20055;-56
2023/04/16 16:34:57;;;;;;;11.35;7.22;;;;;;;;;;6284517;28;20048;-54
2023/04/16 16:37:58;;;;;;;10.32;7.03;;;;;;;;;;6287984;28;20056;-53
2023/04/16 16:40:59;;;;;;;11.07;7.43;;;;;;;;;;6282633;28;20056;-56
2023/04/16 16:43:59;;;;;;;11.40;7.57;;;;;;;;;;6281879;28;20067;-53
2023/04/16 16:47:00;;;;;;;10.90;7.07;;;;;;;;;;6285242;28;20144;-56
2023/04/16 16:50:00;;;;;;;9.52;6.60;;;;;;;;;;6286677;28;20051;-56
2023/04/16 16:53:02;;;;;;;9.75;7.05;;;;;;;;;;6288305;28;20055;-58
2023/04/16 16:56:02;;;;;;;9.93;7.10;;;;;;;;;;6282769;28;20056;-58
2023/04/16 16:59:03;;;;;;;11.77;7.40;;;;;;;;;;6285940;28;20044;-56
2023/04/16 17:02:04;;;;;;;11.80;7.65;;;;;;;;;;6287687;28;20048;-58
2023/04/16 17:05:06;;;;;;;10.57;7.80;;;;;;;;;;6288208;28;20059;-58
2023/04/16 17:08:06;;;;;;;13.27;9.35;;;;;;;;;;6283042;28;20049;-56
2023/04/16 17:11:07;;;;;;;12.25;7.38;;;;;;;;;;6281845;28;20048;-58
2023/04/16 17:14:08;;;;;;;14.68;9.10;;;;;;;;;;6284669;28;20710;-57
2023/04/16 17:17:08;;;;;;;15.43;9.10;;;;;;;;;;6288289;28;20892;-58
2023/04/16 17:20:10;;;;;;;15.90;10.25;;;;;;;;;;6286263;28;20049;-53
2023/04/16 17:23:12;;;;;;;16.73;10.02;;;;;;;;;;6287862;28;20052;-56
2023/04/16 17:26:13;;;;;;;14.65;9.05;;;;;;;;;;6282758;28;20052;-55
2023/04/16 17:29:14;;;;;;;16.42;9.23;;;;;;;;;;6284930;28;20049;-56
2023/04/16 17:32:14;;;;;;;15.45;9.85;;;;;;;;;;6284362;28;20045;-57
2023/04/16 17:35:15;;;;;;;14.75;9.65;;;;;;;;;;6287089;28;20041;-57
2023/04/16 17:38:15;;;;;;;18.45;11.80;;;;;;;;;;6286024;28;20434;-57
2023/04/16 17:41:16;;;;;;;20.70;13.40;;;;;;;;;;6283427;28;20043;-58
2023/04/16 17:44:16;;;;;;;18.85;12.68;;;;;;;;;;6281341;28;20052;-53
2023/04/16 17:47:17;;;;;;;20.58;13.40;;;;;;;;;;6283308;28;20652;-56
2023/04/16 17:50:18;;;;;;;21.70;14.18;;;;;;;;;;6282346;28;20048;-55